Time;durP1;ratioP1;P1;durP2;ratioP2;P2;SDS_P1;SDS_P2;PMS_P1;PMS_P2;Temp;Humidity;BMP_temperature;BMP_pressure;BME280_temperature;BME280_humidity;BME280_pressure;Samples;Min_cycle;Max_cycle;Signal;HPM_P1;HPM_P2
2023/07/12 06:01:17;;;;;;;16.98;4.10;;;;;;;;;;5585914;23;20433;-91
2023/07/12 06:03:43;;;;;;;18.02;4.72;;;;;;;;;;4963804;28;20043;-91
2023/07/12 06:06:08;;;;;;;13.45;4.57;;;;;;;;;;4971399;28;20042;-88
2023/07/12 06:08:34;;;;;;;19.40;4.32;;;;;;;;;;4966614;28;20053;-89
2023/07/12 06:10:59;;;;;;;20.02;4.13;;;;;;;;;;4974020;28;20046;-89
2023/07/12 06:13:25;;;;;;;18.52;4.18;;;;;;;;;;4973921;28;20491;-90
2023/07/12 06:15:51;;;;;;;16.67;3.92;;;;;;;;;;4973852;28;20058;-90
2023/07/12 06:18:16;;;;;;;19.38;4.22;;;;;;;;;;4976894;28;20051;-88
2023/07/12 06:20:42;;;;;;;16.52;3.80;;;;;;;;;;4973522;28;20484;-88
2023/07/12 06:23:07;;;;;;;21.02;3.47;;;;;;;;;;4971827;28;20487;-88
2023/07/12 06:25:32;;;;;;;11.05;3.42;;;;;;;;;;4971571;28;20051;-86
2023/07/12 06:27:58;;;;;;;11.38;3.72;;;;;;;;;;4963820;28;20565;-85
2023/07/12 06:30:24;;;;;;;13.18;3.65;;;;;;;;;;4964386;28;20427;-86
2023/07/12 06:32:49;;;;;;;10.45;3.17;;;;;;;;;;4965626;28;20096;-86
2023/07/12 06:35:15;;;;;;;13.75;3.83;;;;;;;;;;4965075;28;20047;-84
2023/07/12 06:37:40;;;;;;;19.13;3.20;;;;;;;;;;4965189;28;20058;-86
2023/07/12 06:40:06;;;;;;;15.48;3.33;;;;;;;;;;4964761;28;20042;-85
2023/07/12 06:42:33;;;;;;;10.25;2.70;;;;;;;;;;4965886;28;20039;-85
2023/07/12 06:44:58;;;;;;;15.75;3.03;;;;;;;;;;4965683;28;20519;-85
2023/07/12 06:47:24;;;;;;;15.35;2.63;;;;;;;;;;4964891;28;20089;-85
2023/07/12 06:49:49;;;;;;;10.82;2.30;;;;;;;;;;4948001;28;20044;-87
2023/07/12 06:52:14;;;;;;;13.00;2.60;;;;;;;;;;4964121;28;20053;-87
2023/07/12 06:54:40;;;;;;;16.40;2.90;;;;;;;;;;4965267;28;20373;-86
2023/07/12 06:57:06;;;;;;;14.23;2.90;;;;;;;;;;4964515;28;20043;-86
2023/07/12 06:59:31;;;;;;;11.20;2.83;;;;;;;;;;4965231;28;20050;-87
2023/07/12 07:01:56;;;;;;;11.20;2.47;;;;;;;;;;4965092;28;20267;-86
2023/07/12 07:04:22;;;;;;;13.80;2.72;;;;;;;;;;4947407;28;20104;-87
2023/07/12 07:06:47;;;;;;;15.02;2.50;;;;;;;;;;4964937;28;20046;-84
2023/07/12 07:09:13;;;;;;;17.70;2.92;;;;;;;;;;4964789;28;20093;-86
2023/07/12 07:11:38;;;;;;;15.05;2.85;;;;;;;;;;4965085;28;20042;-86
2023/07/12 07:14:04;;;;;;;18.65;3.05;;;;;;;;;;4964063;28;20061;-85
2023/07/12 07:16:30;;;;;;;12.00;2.85;;;;;;;;;;4964876;28;20487;-85
2023/07/12 07:18:55;;;;;;;12.13;2.55;;;;;;;;;;4964944;28;20102;-85
2023/07/12 07:21:21;;;;;;;13.13;2.67;;;;;;;;;;4963888;28;20414;-84
2023/07/12 07:23:46;;;;;;;20.00;3.20;;;;;;;;;;4964850;28;20050;-86
2023/07/12 07:26:12;;;;;;;10.90;2.50;;;;;;;;;;4964349;28;20503;-86
2023/07/12 07:28:39;;;;;;;14.43;2.75;;;;;;;;;;4964870;28;20494;-85
2023/07/12 07:31:05;;;;;;;20.02;2.95;;;;;;;;;;4964095;28;20392;-85
2023/07/12 07:33:30;;;;;;;15.82;2.30;;;;;;;;;;4964931;28;20507;-85
2023/07/12 07:35:56;;;;;;;8.57;2.58;;;;;;;;;;4964930;28;20081;-85
2023/07/12 07:38:28;;;;;;;11.23;2.35;;;;;;;;;;4964415;28;20109;-85
2023/07/12 07:40:55;;;;;;;11.18;2.08;;;;;;;;;;4964251;28;20415;-85
2023/07/12 07:43:21;;;;;;;17.65;2.63;;;;;;;;;;4964060;28;20054;-84
2023/07/12 07:45:46;;;;;;;13.32;2.53;;;;;;;;;;4965710;28;20426;-85
2023/07/12 07:48:12;;;;;;;13.60;2.42;;;;;;;;;;4965372;28;20419;-84
2023/07/12 07:50:39;;;;;;;12.07;2.17;;;;;;;;;;4968039;28;20141;-85
2023/07/12 07:53:04;;;;;;;10.55;2.55;;;;;;;;;;4968924;28;20130;-83
2023/07/12 07:55:30;;;;;;;7.28;2.60;;;;;;;;;;4969300;28;20614;-85
2023/07/12 07:57:55;;;;;;;7.60;1.75;;;;;;;;;;4969401;28;20057;-85
2023/07/12 08:00:21;;;;;;;7.70;1.70;;;;;;;;;;4968593;28;20050;-85
2023/07/12 08:02:47;;;;;;;9.20;2.30;;;;;;;;;;4969156;28;20043;-85
2023/07/12 08:05:17;;;;;;;13.88;2.20;;;;;;;;;;4968821;28;20047;-85
2023/07/12 08:07:46;;;;;;;9.25;2.10;;;;;;;;;;4969105;28;20044;-85
2023/07/12 08:10:15;;;;;;;9.25;2.03;;;;;;;;;;4968774;28;20058;-84
2023/07/12 08:12:41;;;;;;;10.90;2.20;;;;;;;;;;4968256;28;20039;-85
2023/07/12 08:15:07;;;;;;;13.50;2.00;;;;;;;;;;4953642;28;20066;-85
2023/07/12 08:17:32;;;;;;;10.80;2.20;;;;;;;;;;4966941;28;20045;-86
2023/07/12 08:19:58;;;;;;;11.13;1.75;;;;;;;;;;4968076;28;20046;-86
2023/07/12 08:22:24;;;;;;;14.45;2.10;;;;;;;;;;4968390;28;20042;-88
2023/07/12 08:24:49;;;;;;;16.40;2.30;;;;;;;;;;4966259;28;20047;-86
2023/07/12 08:27:16;;;;;;;10.00;2.20;;;;;;;;;;4939708;28;20061;-85
2023/07/12 08:29:44;;;;;;;10.85;1.88;;;;;;;;;;4964791;28;20047;-86
2023/07/12 08:32:10;;;;;;;10.50;1.85;;;;;;;;;;4966863;28;20472;-86
2023/07/12 08:34:36;;;;;;;10.35;1.85;;;;;;;;;;4963745;28;20106;-86
2023/07/12 08:37:02;;;;;;;7.63;1.90;;;;;;;;;;4959017;28;20039;-85
2023/07/12 08:39:27;;;;;;;15.10;1.98;;;;;;;;;;4966708;28;20046;-87
2023/07/12 08:41:53;;;;;;;11.50;1.88;;;;;;;;;;4966954;28;20094;-85
2023/07/12 08:44:19;;;;;;;15.27;2.30;;;;;;;;;;4966868;28;20051;-86
2023/07/12 08:46:57;;;;;;;10.23;2.03;;;;;;;;;;4960674;28;20051;-85
2023/07/12 08:49:24;;;;;;;12.63;1.90;;;;;;;;;;4961946;28;20046;-86
2023/07/12 08:51:55;;;;;;;12.10;2.33;;;;;;;;;;4958683;28;20463;-86
2023/07/12 08:54:25;;;;;;;10.55;2.00;;;;;;;;;;4966029;28;20046;-87
2023/07/12 08:57:07;;;;;;;10.60;1.80;;;;;;;;;;4962848;28;20097;-87
2023/07/12 08:59:32;;;;;;;11.50;1.88;;;;;;;;;;4964852;28;20069;-86
2023/07/12 09:02:00;;;;;;;11.80;2.20;;;;;;;;;;4961868;28;20511;-85
2023/07/12 09:04:28;;;;;;;9.38;2.00;;;;;;;;;;4966135;28;20450;-85
2023/07/12 09:06:57;;;;;;;11.75;2.10;;;;;;;;;;4967299;28;20578;-85
2023/07/12 09:09:23;;;;;;;11.43;2.17;;;;;;;;;;4963094;28;20053;-83
2023/07/12 09:11:49;;;;;;;7.20;1.63;;;;;;;;;;4956585;28;20519;-86
2023/07/12 09:14:17;;;;;;;9.80;2.22;;;;;;;;;;4964676;28;20058;-84
2023/07/12 09:16:46;;;;;;;9.07;1.95;;;;;;;;;;4972595;28;20491;-84
2023/07/12 09:19:15;;;;;;;11.48;1.88;;;;;;;;;;4965843;28;20053;-84
2023/07/12 09:21:45;;;;;;;10.48;2.10;;;;;;;;;;4966234;28;20050;-86
2023/07/12 09:24:13;;;;;;;10.07;1.80;;;;;;;;;;4966204;28;20538;-84
2023/07/12 09:26:39;;;;;;;9.52;1.88;;;;;;;;;;4967067;28;20054;-89
2023/07/12 09:29:27;;;;;;;9.55;1.80;;;;;;;;;;4964859;28;20039;-88
2023/07/12 09:31:59;;;;;;;6.45;1.58;;;;;;;;;;4966253;28;20094;-91
2023/07/12 09:34:35;;;;;;;8.75;1.80;;;;;;;;;;4968019;28;20054;-88
2023/07/12 09:37:01;;;;;;;7.55;2.00;;;;;;;;;;4969679;28;20041;-92
2023/07/12 09:39:27;;;;;;;6.72;1.90;;;;;;;;;;4951201;28;20043;-85
2023/07/12 09:42:02;;;;;;;8.23;2.00;;;;;;;;;;4954905;28;20130;-90
2023/07/12 09:44:29;;;;;;;8.98;1.90;;;;;;;;;;4945793;28;20042;-87
2023/07/12 09:47:06;;;;;;;9.00;2.00;;;;;;;;;;4955236;28;20053;-90
2023/07/12 09:49:43;;;;;;;12.77;1.85;;;;;;;;;;4962410;28;20047;-89
2023/07/12 09:52:24;;;;;;;9.73;1.90;;;;;;;;;;4961551;28;20150;-89
2023/07/12 09:54:57;;;;;;;11.43;1.73;;;;;;;;;;4963114;28;20722;-91
2023/07/12 09:57:34;;;;;;;9.15;1.88;;;;;;;;;;4959002;28;20093;-89
2023/07/12 10:00:24;;;;;;;8.00;1.52;;;;;;;;;;4953097;28;20047;-91
2023/07/12 10:03:07;;;;;;;8.93;2.33;;;;;;;;;;4955716;28;20051;-89
2023/07/12 10:05:34;;;;;;;6.35;1.65;;;;;;;;;;4967344;28;20054;-90
2023/07/12 10:08:12;;;;;;;11.60;1.80;;;;;;;;;;4954806;28;20042;-90
2023/07/12 10:10:56;;;;;;;10.13;2.22;;;;;;;;;;4967669;28;20141;-92
2023/07/12 10:13:21;;;;;;;7.75;1.65;;;;;;;;;;4955972;28;20434;-78
2023/07/12 10:15:48;;;;;;;9.25;1.88;;;;;;;;;;4965877;28;20050;-78
2023/07/12 10:18:19;;;;;;;11.38;2.00;;;;;;;;;;4965843;28;20105;-78
2023/07/12 10:20:46;;;;;;;5.78;1.67;;;;;;;;;;4966120;28;20046;-79
2023/07/12 10:23:12;;;;;;;10.18;1.67;;;;;;;;;;4965559;28;20538;-78
2023/07/12 10:25:44;;;;;;;8.70;1.80;;;;;;;;;;4965638;28;20070;-77
2023/07/12 10:28:10;;;;;;;9.60;1.85;;;;;;;;;;4965511;28;20035;-77
2023/07/12 10:30:37;;;;;;;7.75;1.50;;;;;;;;;;4948404;28;20083;-77
2023/07/12 10:33:13;;;;;;;9.35;1.63;;;;;;;;;;4964676;28;20408;-78
2023/07/12 10:35:45;;;;;;;7.60;1.65;;;;;;;;;;4965707;28;20101;-78
2023/07/12 10:38:17;;;;;;;11.40;1.55;;;;;;;;;;4952427;28;20046;-77
2023/07/12 10:41:08;;;;;;;5.95;1.83;;;;;;;;;;4965872;28;20051;-77
2023/07/12 10:43:38;;;;;;;11.07;1.75;;;;;;;;;;4944544;28;20051;-77
2023/07/12 10:46:13;;;;;;;8.18;1.80;;;;;;;;;;4960151;28;20041;-77
2023/07/12 10:48:45;;;;;;;6.80;1.60;;;;;;;;;;4965064;28;20039;-78
2023/07/12 10:51:33;;;;;;;7.68;1.60;;;;;;;;;;4963946;28;22013;-78
2023/07/12 10:53:59;;;;;;;8.82;1.60;;;;;;;;;;4964493;28;20050;-77
2023/07/12 10:56:32;;;;;;;8.23;2.03;;;;;;;;;;4964331;28;20051;-77
2023/07/12 10:59:00;;;;;;;8.15;1.58;;;;;;;;;;4964146;28;20047;-77
2023/07/12 11:01:41;;;;;;;5.22;1.70;;;;;;;;;;4964427;28;20109;-78
2023/07/12 11:04:06;;;;;;;11.75;2.08;;;;;;;;;;4964834;28;20479;-78
2023/07/12 11:06:32;;;;;;;8.52;1.83;;;;;;;;;;4964937;28;20066;-76
2023/07/12 11:09:01;;;;;;;9.77;1.73;;;;;;;;;;4964558;28;20074;-77
2023/07/12 11:11:26;;;;;;;10.18;2.15;;;;;;;;;;4964312;28;20057;-77
2023/07/12 11:13:59;;;;;;;8.27;1.88;;;;;;;;;;4964374;28;20042;-77
2023/07/12 11:16:26;;;;;;;6.35;1.55;;;;;;;;;;4963680;28;20124;-77
2023/07/12 11:18:57;;;;;;;8.05;1.70;;;;;;;;;;4955368;28;20571;-79
2023/07/12 11:21:47;;;;;;;8.13;1.58;;;;;;;;;;4964275;28;20066;-77
2023/07/12 11:24:21;;;;;;;7.72;1.60;;;;;;;;;;4940568;28;20059;-77
2023/07/12 11:26:59;;;;;;;12.20;2.35;;;;;;;;;;4946944;28;20102;-78
2023/07/12 11:29:24;;;;;;;7.95;1.95;;;;;;;;;;4963888;28;20051;-78
2023/07/12 11:32:02;;;;;;;9.20;1.80;;;;;;;;;;4964404;28;20113;-77
2023/07/12 11:34:28;;;;;;;7.68;1.70;;;;;;;;;;4963740;28;20463;-78
2023/07/12 11:36:56;;;;;;;8.88;1.88;;;;;;;;;;4962026;28;20039;-76
2023/07/12 11:39:24;;;;;;;9.07;2.20;;;;;;;;;;4963001;28;20046;-77
2023/07/12 11:41:57;;;;;;;6.15;1.90;;;;;;;;;;4964399;28;20050;-82
2023/07/12 11:44:25;;;;;;;10.60;2.20;;;;;;;;;;4964033;28;20172;-77
2023/07/12 11:46:51;;;;;;;9.70;2.00;;;;;;;;;;4964302;28;20043;-76
2023/07/12 11:49:19;;;;;;;8.32;1.90;;;;;;;;;;4963902;28;20051;-77
2023/07/12 11:51:48;;;;;;;11.77;2.13;;;;;;;;;;4964317;28;20046;-77
2023/07/12 11:54:20;;;;;;;12.57;1.90;;;;;;;;;;4963850;28;20043;-78
2023/07/12 11:56:49;;;;;;;8.52;1.65;;;;;;;;;;4964216;28;20562;-77
2023/07/12 11:59:22;;;;;;;10.55;1.83;;;;;;;;;;4964111;28;20058;-78
2023/07/12 12:01:50;;;;;;;7.70;1.60;;;;;;;;;;4971579;28;20113;-78
2023/07/12 12:04:30;;;;;;;7.72;1.67;;;;;;;;;;4963863;28;20105;-78
2023/07/12 12:07:27;;;;;;;4.93;1.15;;;;;;;;;;4964819;28;20205;-79
2023/07/12 12:09:54;;;;;;;4.57;1.58;;;;;;;;;;4968895;28;20043;-78
2023/07/12 12:12:26;;;;;;;7.53;1.60;;;;;;;;;;4972099;28;20112;-78
2023/07/12 12:14:52;;;;;;;7.05;1.48;;;;;;;;;;4964510;28;20232;-78
2023/07/12 12:17:24;;;;;;;12.88;1.80;;;;;;;;;;4965904;28;20133;-77
2023/07/12 12:20:00;;;;;;;7.05;1.63;;;;;;;;;;4976076;28;20133;-77
2023/07/12 12:22:25;;;;;;;6.72;1.27;;;;;;;;;;4962557;28;20507;-77
2023/07/12 12:24:54;;;;;;;6.10;1.77;;;;;;;;;;4969229;28;20054;-78
2023/07/12 12:27:26;;;;;;;6.03;1.30;;;;;;;;;;4968449;28;20043;-78
2023/07/12 12:29:52;;;;;;;6.78;1.45;;;;;;;;;;4964446;28;20384;-77
2023/07/12 12:32:21;;;;;;;6.75;1.52;;;;;;;;;;4965724;28;20039;-79
2023/07/12 12:34:53;;;;;;;6.93;1.90;;;;;;;;;;4977979;28;20057;-79
2023/07/12 12:37:29;;;;;;;8.45;1.52;;;;;;;;;;4959883;28;20045;-78
2023/07/12 12:40:07;;;;;;;8.43;1.58;;;;;;;;;;4947864;28;20051;-77
2023/07/12 12:42:33;;;;;;;;;;;;;;;;;;4948712;28;20035;-76
2023/07/12 12:44:59;;;;;;;6.47;1.90;;;;;;;;;;4950477;28;19926;-80
2023/07/12 12:47:30;;;;;;;7.80;2.08;;;;;;;;;;4948260;28;20059;-78
2023/07/12 12:49:57;;;;;;;6.53;1.50;;;;;;;;;;4930743;29;20062;-78
2023/07/12 12:52:26;;;;;;;8.13;1.90;;;;;;;;;;4947657;28;20055;-77
2023/07/12 12:54:53;;;;;;;8.88;1.75;;;;;;;;;;4948485;28;20051;-76
2023/07/12 12:57:19;;;;;;;6.05;1.73;;;;;;;;;;4948307;28;20097;-76
2023/07/12 12:59:45;;;;;;;7.25;1.70;;;;;;;;;;4948159;28;20054;-79
2023/07/12 13:02:15;;;;;;;10.38;1.83;;;;;;;;;;4961142;28;20039;-78
2023/07/12 13:04:41;;;;;;;9.02;1.70;;;;;;;;;;4967782;28;20047;-79
2023/07/12 13:07:31;;;;;;;10.20;2.00;;;;;;;;;;4963103;28;20038;-77
2023/07/12 13:09:56;;;;;;;8.07;1.67;;;;;;;;;;4973728;28;20043;-78
2023/07/12 13:12:24;;;;;;;6.40;1.65;;;;;;;;;;4973006;28;20047;-78
2023/07/12 13:14:50;;;;;;;8.40;1.77;;;;;;;;;;4973316;28;20070;-76
2023/07/12 13:17:16;;;;;;;7.07;1.70;;;;;;;;;;4973869;28;20079;-78
2023/07/12 13:19:43;;;;;;;4.32;1.40;;;;;;;;;;4973055;28;20042;-79
2023/07/12 13:22:13;;;;;;;6.00;1.60;;;;;;;;;;4972725;28;20217;-79
2023/07/12 13:24:39;;;;;;;7.90;2.08;;;;;;;;;;4968067;28;20099;-79
2023/07/12 13:27:21;;;;;;;7.53;1.50;;;;;;;;;;4954587;28;20571;-78
2023/07/12 13:29:48;;;;;;;8.13;1.50;;;;;;;;;;4954996;28;20043;-80
2023/07/12 13:32:14;;;;;;;6.38;1.52;;;;;;;;;;4966087;28;20070;-79
2023/07/12 13:34:39;;;;;;;7.05;1.55;;;;;;;;;;4972820;28;20077;-80
2023/07/12 13:37:05;;;;;;;7.53;1.65;;;;;;;;;;4971173;28;20559;-79
2023/07/12 13:39:31;;;;;;;7.47;1.70;;;;;;;;;;4971966;28;20050;-80
2023/07/12 13:41:58;;;;;;;6.05;1.40;;;;;;;;;;4972924;28;20514;-79
2023/07/12 13:44:24;;;;;;;7.53;1.63;;;;;;;;;;4972176;28;20046;-79
2023/07/12 13:46:51;;;;;;;7.22;1.70;;;;;;;;;;4971162;28;20499;-79
2023/07/12 13:49:18;;;;;;;5.47;1.55;;;;;;;;;;4972897;28;20051;-79
2023/07/12 13:51:44;;;;;;;7.60;1.40;;;;;;;;;;4973250;28;20062;-78
2023/07/12 13:54:10;;;;;;;7.35;1.58;;;;;;;;;;4973041;28;20138;-77
2023/07/12 13:56:36;;;;;;;10.75;1.70;;;;;;;;;;4973651;28;20515;-79
2023/07/12 13:59:01;;;;;;;8.02;2.03;;;;;;;;;;4973219;28;20093;-80
2023/07/12 14:01:28;;;;;;;10.20;1.48;;;;;;;;;;4972893;28;20396;-79
2023/07/12 14:03:55;;;;;;;4.70;1.58;;;;;;;;;;4973749;28;20035;-80
2023/07/12 14:06:21;;;;;;;8.00;1.63;;;;;;;;;;4972080;28;20041;-79
2023/07/12 14:08:47;;;;;;;7.55;1.70;;;;;;;;;;4973713;28;20042;-79
2023/07/12 14:11:27;;;;;;;6.10;1.70;;;;;;;;;;4972585;28;20446;-79
2023/07/12 14:13:54;;;;;;;7.65;1.52;;;;;;;;;;4973239;28;20046;-80
2023/07/12 14:16:21;;;;;;;7.57;1.58;;;;;;;;;;4971896;28;20030;-79
2023/07/12 14:18:46;;;;;;;6.65;1.60;;;;;;;;;;4972993;28;20038;-79
2023/07/12 14:21:13;;;;;;;9.65;1.67;;;;;;;;;;4972289;28;20050;-80
2023/07/12 14:23:40;;;;;;;7.60;1.67;;;;;;;;;;4973533;28;20042;-79
2023/07/12 14:26:17;;;;;;;8.35;1.70;;;;;;;;;;4954895;28;20519;-78
2023/07/12 14:28:44;;;;;;;7.22;1.90;;;;;;;;;;4954221;28;20047;-79
2023/07/12 14:31:16;;;;;;;6.88;1.70;;;;;;;;;;4956301;28;20043;-79
2023/07/12 14:33:43;;;;;;;8.50;1.88;;;;;;;;;;4973374;28;20046;-81
2023/07/12 14:36:13;;;;;;;10.82;1.88;;;;;;;;;;4972251;28;20120;-78
2023/07/12 14:38:38;;;;;;;8.40;1.70;;;;;;;;;;4972904;28;20061;-80
2023/07/12 14:41:06;;;;;;;6.20;1.30;;;;;;;;;;4972156;28;20053;-78
2023/07/12 14:43:32;;;;;;;6.05;1.63;;;;;;;;;;4972886;28;20482;-79
2023/07/12 14:45:57;;;;;;;6.80;1.58;;;;;;;;;;4972976;28;20134;-78
2023/07/12 14:48:22;;;;;;;11.07;2.20;;;;;;;;;;4972076;28;20460;-79
2023/07/12 14:50:49;;;;;;;7.85;1.92;;;;;;;;;;4972470;28;20039;-79
2023/07/12 14:53:21;;;;;;;6.88;1.60;;;;;;;;;;4971774;28;20512;-78
2023/07/12 14:55:46;;;;;;;8.90;2.00;;;;;;;;;;4972273;28;20055;-78
2023/07/12 14:58:16;;;;;;;6.50;2.05;;;;;;;;;;4971764;28;20047;-78
2023/07/12 15:00:42;;;;;;;8.35;1.70;;;;;;;;;;4972275;28;20051;-78
2023/07/12 15:03:20;;;;;;;10.95;2.05;;;;;;;;;;4972121;28;20065;-79
2023/07/12 15:05:46;;;;;;;;;;;;;;;;;;4971986;28;20085;-78
2023/07/12 15:08:38;;;;;;;9.25;1.75;;;;;;;;;;4971795;28;19929;-77
2023/07/12 15:11:19;;;;;;;10.18;1.80;;;;;;;;;;4964619;28;20063;-75
2023/07/12 15:13:47;;;;;;;7.75;1.88;;;;;;;;;;4969622;28;20049;-78
2023/07/12 15:16:18;;;;;;;;;;;;;;;;;;4971730;28;20039;-77
2023/07/12 15:18:44;;;;;;;9.25;1.80;;;;;;;;;;4971575;28;20394;-77
2023/07/12 15:21:24;;;;;;;10.50;1.52;;;;;;;;;;4971461;28;20045;-77
2023/07/12 15:23:51;;;;;;;6.82;1.67;;;;;;;;;;4970947;28;20104;-76
2023/07/12 15:26:17;;;;;;;7.88;1.58;;;;;;;;;;4970595;28;20097;-77
2023/07/12 15:28:45;;;;;;;7.30;1.60;;;;;;;;;;4971328;28;20051;-77
2023/07/12 15:31:33;;;;;;;11.20;1.58;;;;;;;;;;4953302;28;20043;-78
2023/07/12 15:33:59;;;;;;;8.90;1.83;;;;;;;;;;4968813;28;20130;-76
2023/07/12 15:36:25;;;;;;;10.70;2.10;;;;;;;;;;4971104;28;20126;-78
2023/07/12 15:38:51;;;;;;;9.20;2.10;;;;;;;;;;4971404;28;20057;-78
2023/07/12 15:41:20;;;;;;;9.18;1.83;;;;;;;;;;4971054;28;20058;-79
2023/07/12 15:43:53;;;;;;;6.68;1.63;;;;;;;;;;4972114;28;20039;-78
2023/07/12 15:46:21;;;;;;;9.20;1.67;;;;;;;;;;4965325;28;20534;-80
2023/07/12 15:48:47;;;;;;;8.68;2.00;;;;;;;;;;4968328;28;20081;-79
2023/07/12 15:51:22;;;;;;;5.55;1.63;;;;;;;;;;4968255;28;20476;-77
2023/07/12 15:53:51;;;;;;;7.55;2.00;;;;;;;;;;4968571;28;20134;-77
2023/07/12 15:56:21;;;;;;;8.32;1.80;;;;;;;;;;4970699;28;20051;-78
2023/07/12 15:58:47;;;;;;;8.68;1.77;;;;;;;;;;4970807;28;20499;-77
2023/07/12 16:01:20;;;;;;;9.88;1.60;;;;;;;;;;4971407;28;20102;-78
2023/07/12 16:03:46;;;;;;;10.48;1.85;;;;;;;;;;4971019;28;20085;-77
2023/07/12 16:06:12;;;;;;;9.80;1.55;;;;;;;;;;4970372;28;20079;-77
2023/07/12 16:08:39;;;;;;;7.57;1.75;;;;;;;;;;4970927;28;20054;-78
2023/07/12 16:11:21;;;;;;;7.18;1.92;;;;;;;;;;4965972;28;20050;-77
2023/07/12 16:13:48;;;;;;;8.65;1.90;;;;;;;;;;4952231;28;20049;-77
2023/07/12 16:16:20;;;;;;;7.95;2.00;;;;;;;;;;4964678;28;20089;-77
2023/07/12 16:18:46;;;;;;;8.55;2.00;;;;;;;;;;4965161;28;20062;-76
2023/07/12 16:21:20;;;;;;;6.95;1.65;;;;;;;;;;4970050;28;20054;-76
2023/07/12 16:23:47;;;;;;;12.38;2.30;;;;;;;;;;4965485;28;20046;-77
2023/07/12 16:26:17;;;;;;;9.88;2.40;;;;;;;;;;4969201;28;20138;-77
2023/07/12 16:28:43;;;;;;;8.65;1.80;;;;;;;;;;4959798;28;20078;-78
2023/07/12 16:31:34;;;;;;;6.47;1.70;;;;;;;;;;4969715;28;20042;-76
2023/07/12 16:34:00;;;;;;;11.20;2.47;;;;;;;;;;4970280;28;20057;-76
2023/07/12 16:36:27;;;;;;;8.23;1.70;;;;;;;;;;4975564;28;20038;-77
2023/07/12 16:38:53;;;;;;;10.07;2.05;;;;;;;;;;4962386;28;20503;-76
2023/07/12 16:41:23;;;;;;;10.27;1.85;;;;;;;;;;4970269;28;20062;-76
2023/07/12 16:43:49;;;;;;;8.10;1.88;;;;;;;;;;4974499;28;20030;-75
2023/07/12 16:46:15;;;;;;;11.52;1.90;;;;;;;;;;4966449;28;20046;-77
2023/07/12 16:48:41;;;;;;;8.98;2.03;;;;;;;;;;4962109;28;20082;-76
2023/07/12 16:51:15;;;;;;;12.23;2.25;;;;;;;;;;4959594;28;20130;-76
2023/07/12 16:53:41;;;;;;;11.80;1.83;;;;;;;;;;4968222;28;20081;-77
2023/07/12 16:56:20;;;;;;;10.68;2.08;;;;;;;;;;4967615;28;20062;-78
2023/07/12 16:58:48;;;;;;;9.68;1.85;;;;;;;;;;4973891;28;20043;-76
2023/07/12 17:01:36;;;;;;;12.88;2.03;;;;;;;;;;4972476;28;20090;-77
2023/07/12 17:04:02;;;;;;;;;;;;;;;;;;4956409;28;20078;-77
2023/07/12 17:06:28;;;;;;;10.05;2.00;;;;;;;;;;4971934;28;20769;-77
2023/07/12 17:08:54;;;;;;;10.07;1.90;;;;;;;;;;4972970;28;20129;-77
2023/07/12 17:11:24;;;;;;;10.85;1.80;;;;;;;;;;4971820;28;20548;-78
2023/07/12 17:13:50;;;;;;;10.55;2.22;;;;;;;;;;4981543;28;20121;-78
2023/07/12 17:16:17;;;;;;;7.90;1.83;;;;;;;;;;4981914;28;20054;-78
2023/07/12 17:18:42;;;;;;;11.05;1.92;;;;;;;;;;4978714;28;20046;-77
2023/07/12 17:21:16;;;;;;;7.20;1.65;;;;;;;;;;4983050;28;20042;-78
2023/07/12 17:23:42;;;;;;;8.50;1.77;;;;;;;;;;4973195;28;20487;-78
2023/07/12 17:26:15;;;;;;;14.50;1.75;;;;;;;;;;4983425;28;20097;-78
2023/07/12 17:28:42;;;;;;;6.05;1.58;;;;;;;;;;4970276;28;20126;-79
2023/07/12 17:31:08;;;;;;;10.65;1.88;;;;;;;;;;4977023;28;20043;-77
2023/07/12 17:33:34;;;;;;;9.57;1.90;;;;;;;;;;4975222;28;20050;-77
2023/07/12 17:36:00;;;;;;;11.32;2.40;;;;;;;;;;4982075;28;20038;-77
2023/07/12 17:38:26;;;;;;;5.57;1.67;;;;;;;;;;4978302;28;20129;-77
2023/07/12 17:40:55;;;;;;;7.97;1.92;;;;;;;;;;4976689;28;20423;-78
2023/07/12 17:43:29;;;;;;;9.25;1.85;;;;;;;;;;4985880;28;20050;-77
2023/07/12 17:45:55;;;;;;;7.95;1.50;;;;;;;;;;4974347;28;20051;-77
2023/07/12 17:48:21;;;;;;;6.47;1.63;;;;;;;;;;4973130;28;20182;-76
2023/07/12 17:50:58;;;;;;;8.88;1.83;;;;;;;;;;4974045;28;20515;-77
2023/07/12 17:53:24;;;;;;;9.13;1.88;;;;;;;;;;4973246;28;20054;-77
2023/07/12 17:55:55;;;;;;;7.90;1.77;;;;;;;;;;4975112;28;20138;-76
2023/07/12 17:58:20;;;;;;;10.32;1.80;;;;;;;;;;4972259;28;20046;-75
2023/07/12 18:00:48;;;;;;;9.98;2.00;;;;;;;;;;4985556;28;20415;-76
2023/07/12 18:03:21;;;;;;;11.85;1.67;;;;;;;;;;4972233;28;20082;-76
2023/07/12 18:05:48;;;;;;;8.23;1.92;;;;;;;;;;4972978;28;20515;-76
2023/07/12 18:08:17;;;;;;;9.25;1.73;;;;;;;;;;4974201;28;20043;-81
2023/07/12 18:10:54;;;;;;;12.20;2.35;;;;;;;;;;4963273;28;20869;-77
2023/07/12 18:13:23;;;;;;;10.70;2.25;;;;;;;;;;4979621;28;20062;-76
2023/07/12 18:15:49;;;;;;;10.20;2.22;;;;;;;;;;4986523;28;20046;-76
2023/07/12 18:18:16;;;;;;;9.82;2.10;;;;;;;;;;4976508;28;20122;-76
2023/07/12 18:20:43;;;;;;;11.80;1.90;;;;;;;;;;4973079;28;20098;-77
2023/07/12 18:23:26;;;;;;;10.38;2.20;;;;;;;;;;4972311;28;20046;-78
2023/07/12 18:25:52;;;;;;;11.10;1.95;;;;;;;;;;4977126;28;20587;-76
2023/07/12 18:28:19;;;;;;;9.48;2.45;;;;;;;;;;4971800;28;20047;-77
2023/07/12 18:30:49;;;;;;;13.77;2.63;;;;;;;;;;4982564;28;20046;-78
2023/07/12 18:33:19;;;;;;;9.13;2.05;;;;;;;;;;4971283;28;20050;-77
2023/07/12 18:35:50;;;;;;;12.95;2.20;;;;;;;;;;4984538;28;20046;-76
2023/07/12 18:38:18;;;;;;;9.55;2.00;;;;;;;;;;4959399;28;20396;-77
2023/07/12 18:40:44;;;;;;;13.85;2.33;;;;;;;;;;4961870;28;20126;-76
2023/07/12 18:43:16;;;;;;;10.55;2.42;;;;;;;;;;4965041;28;20129;-76
2023/07/12 18:45:42;;;;;;;12.50;2.05;;;;;;;;;;4965675;28;20093;-77
2023/07/12 18:48:08;;;;;;;9.13;2.10;;;;;;;;;;4965291;28;20516;-76
2023/07/12 18:50:33;;;;;;;7.45;2.28;;;;;;;;;;4973027;28;20122;-75
2023/07/12 18:52:59;;;;;;;15.20;2.58;;;;;;;;;;4968123;28;20046;-77
2023/07/12 18:55:24;;;;;;;8.55;1.85;;;;;;;;;;4968397;28;20056;-76
2023/07/12 18:57:52;;;;;;;12.48;2.47;;;;;;;;;;4964986;28;20050;-77
2023/07/12 19:00:18;;;;;;;14.27;2.75;;;;;;;;;;4955041;28;20134;-76
2023/07/12 19:02:44;;;;;;;10.18;2.38;;;;;;;;;;4960712;28;20057;-76
2023/07/12 19:05:29;;;;;;;9.77;2.20;;;;;;;;;;4961280;28;20038;-75
2023/07/12 19:07:56;;;;;;;16.10;2.85;;;;;;;;;;4962612;28;20055;-75
2023/07/12 19:10:22;;;;;;;10.85;2.95;;;;;;;;;;4963981;28;20109;-78
2023/07/12 19:12:49;;;;;;;15.73;2.95;;;;;;;;;;4947621;28;20424;-79
2023/07/12 19:15:24;;;;;;;13.25;2.35;;;;;;;;;;4964458;28;20082;-78
2023/07/12 19:17:49;;;;;;;11.23;2.13;;;;;;;;;;4955411;28;20039;-78
2023/07/12 19:20:16;;;;;;;14.32;2.60;;;;;;;;;;4945901;28;20103;-78
2023/07/12 19:22:42;;;;;;;8.13;2.00;;;;;;;;;;4962655;28;20050;-77
2023/07/12 19:25:26;;;;;;;12.05;2.38;;;;;;;;;;4954952;28;20043;-77
2023/07/12 19:27:52;;;;;;;10.60;2.53;;;;;;;;;;4962666;28;20422;-77
2023/07/12 19:30:21;;;;;;;15.00;2.85;;;;;;;;;;4964364;28;20050;-77
2023/07/12 19:32:47;;;;;;;13.48;2.40;;;;;;;;;;4965091;28;20678;-78
2023/07/12 19:35:32;;;;;;;8.73;2.42;;;;;;;;;;4963931;28;20147;-77
2023/07/12 19:37:58;;;;;;;14.50;2.92;;;;;;;;;;4964841;28;20058;-79
2023/07/12 19:40:24;;;;;;;15.52;2.55;;;;;;;;;;4964212;28;20086;-78
2023/07/12 19:42:52;;;;;;;12.90;2.63;;;;;;;;;;4964730;28;20066;-77
2023/07/12 19:45:22;;;;;;;11.93;2.67;;;;;;;;;;4966630;28;20143;-76
2023/07/12 19:47:48;;;;;;;13.15;2.63;;;;;;;;;;4970719;28;20434;-75
2023/07/12 19:50:14;;;;;;;13.88;2.60;;;;;;;;;;4963253;28;20051;-76
2023/07/12 19:52:40;;;;;;;13.15;3.05;;;;;;;;;;4968302;28;20042;-76
2023/07/12 19:55:06;;;;;;;16.00;3.08;;;;;;;;;;4967706;28;20046;-77
2023/07/12 19:57:31;;;;;;;12.10;2.90;;;;;;;;;;4968425;28;20043;-77
2023/07/12 19:59:57;;;;;;;10.02;2.72;;;;;;;;;;4968334;28;20538;-75
2023/07/12 20:02:25;;;;;;;15.13;3.28;;;;;;;;;;4967602;28;20065;-77
2023/07/12 20:04:51;;;;;;;15.57;3.10;;;;;;;;;;4968319;28;20043;-78
2023/07/12 20:07:17;;;;;;;9.93;2.58;;;;;;;;;;4967861;28;20057;-76
2023/07/12 20:09:43;;;;;;;14.55;2.90;;;;;;;;;;4968530;28;20051;-76
2023/07/12 20:12:09;;;;;;;14.13;2.88;;;;;;;;;;4967775;28;20042;-76
2023/07/12 20:14:36;;;;;;;11.73;3.10;;;;;;;;;;4966584;28;20142;-78
2023/07/12 20:17:04;;;;;;;9.45;3.00;;;;;;;;;;4967392;28;20039;-76
2023/07/12 20:19:29;;;;;;;13.63;2.92;;;;;;;;;;4950595;28;20058;-76
2023/07/12 20:21:57;;;;;;;20.20;3.30;;;;;;;;;;4959891;28;20049;-77
2023/07/12 20:24:22;;;;;;;12.20;3.13;;;;;;;;;;4966668;28;20043;-75
2023/07/12 20:26:48;;;;;;;11.88;2.88;;;;;;;;;;4967743;28;20049;-76
2023/07/12 20:29:14;;;;;;;12.15;2.75;;;;;;;;;;4967609;28;20054;-75
2023/07/12 20:31:40;;;;;;;20.52;3.47;;;;;;;;;;4967807;28;20046;-76
2023/07/12 20:34:05;;;;;;;16.13;3.45;;;;;;;;;;4959539;28;20133;-75
2023/07/12 20:36:31;;;;;;;12.50;2.83;;;;;;;;;;4950313;28;20472;-75
2023/07/12 20:38:57;;;;;;;13.02;3.15;;;;;;;;;;4967009;28;20046;-76
2023/07/12 20:41:25;;;;;;;13.77;3.20;;;;;;;;;;4967539;28;20047;-76
2023/07/12 20:43:50;;;;;;;13.10;3.00;;;;;;;;;;4966775;28;20043;-76
2023/07/12 20:46:16;;;;;;;15.10;2.97;;;;;;;;;;4967363;28;20333;-74
2023/07/12 20:48:43;;;;;;;13.25;2.78;;;;;;;;;;4967422;28;20066;-74